BTK6292 WIII-WAAA
Flight info
| Callsign | BTK6292 |
|---|---|
| Flight time | 2h 1m |
| Altitude | 37000 |
| Route | CA T5 BIMAK |
| Aircraft | A320/M-SDE3FGHIRWY/LB1 |
Departure
| Time | 2026-04-20 03:17 |
|---|---|
| Airport | Soekarno-Hatta International Airport (WIII) |
Arrival
| Time | 2026-04-20 05:19 |
|---|---|
| Airport | Sultan Hasanuddin International Airport (WAAA) |
| Time | Latitude | Longitude | Altitude | Speed | Heading |
|---|---|---|---|---|---|
| 2026-04-20 02:54 | -6.12214 | 106.65023 | 37 ft | 0 kts | 176° |
| 2026-04-20 03:09 | -6.12200 | 106.65022 | 37 ft | 4 kts | 176° |
| 2026-04-20 03:09 | -6.12175 | 106.65021 | 38 ft | 2 kts | 176° |
| 2026-04-20 03:09 | -6.12152 | 106.65018 | 38 ft | 4 kts | 157° |
| 2026-04-20 03:10 | -6.12129 | 106.65005 | 38 ft | 4 kts | 159° |
| 2026-04-20 03:10 | -6.12110 | 106.65003 | 36 ft | 4 kts | 188° |
| 2026-04-20 03:10 | -6.12089 | 106.65006 | 38 ft | 0 kts | 188° |
| 2026-04-20 03:12 | -6.12102 | 106.65003 | 38 ft | 6 kts | 195° |
| 2026-04-20 03:12 | -6.12134 | 106.64966 | 37 ft | 7 kts | 247° |
| 2026-04-20 03:12 | -6.12153 | 106.64924 | 38 ft | 7 kts | 247° |
| 2026-04-20 03:13 | -6.12183 | 106.64849 | 37 ft | 12 kts | 249° |
| 2026-04-20 03:13 | -6.12204 | 106.64773 | 38 ft | 10 kts | 277° |
| 2026-04-20 03:13 | -6.12150 | 106.64729 | 38 ft | 12 kts | 338° |
| 2026-04-20 03:13 | -6.12076 | 106.64699 | 37 ft | 12 kts | 338° |
| 2026-04-20 03:14 | -6.12003 | 106.64645 | 38 ft | 14 kts | 287° |
| 2026-04-20 03:14 | -6.12025 | 106.64561 | 38 ft | 13 kts | 248° |
| 2026-04-20 03:14 | -6.12062 | 106.64467 | 37 ft | 14 kts | 248° |
| 2026-04-20 03:14 | -6.12097 | 106.64381 | 39 ft | 12 kts | 248° |
| 2026-04-20 03:15 | -6.12129 | 106.64300 | 38 ft | 15 kts | 248° |
| 2026-04-20 03:15 | -6.12177 | 106.64181 | 38 ft | 21 kts | 248° |
| 2026-04-20 03:15 | -6.12230 | 106.64046 | 39 ft | 21 kts | 248° |
| 2026-04-20 03:15 | -6.12243 | 106.63917 | 39 ft | 18 kts | 311° |
| 2026-04-20 03:16 | -6.12133 | 106.63903 | 42 ft | 12 kts | 15° |
| 2026-04-20 03:16 | -6.12076 | 106.63948 | 40 ft | 10 kts | 66° |
| 2026-04-20 03:16 | -6.12070 | 106.63965 | 40 ft | 3 kts | 69° |
| 2026-04-20 03:16 | -6.12009 | 106.64117 | 41 ft | 58 kts | 68° |
| 2026-04-20 03:17 | -6.11771 | 106.64709 | 42 ft | 120 kts | 68° |
| 2026-04-20 03:17 | -6.11404 | 106.65631 | 42 ft | 167 kts | 68° |
| 2026-04-20 03:17 | -6.10946 | 106.66760 | 476 ft | 178 kts | 67° |
| 2026-04-20 03:17 | -6.10477 | 106.67909 | 1226 ft | 177 kts | 63° |
| 2026-04-20 03:18 | -6.09765 | 106.68908 | 1923 ft | 177 kts | 49° |
| 2026-04-20 03:18 | -6.08875 | 106.69845 | 2226 ft | 195 kts | 46° |
| 2026-04-20 03:18 | -6.07853 | 106.70870 | 2437 ft | 220 kts | 47° |
| 2026-04-20 03:18 | -6.06975 | 106.72199 | 2751 ft | 242 kts | 73° |
| 2026-04-20 03:19 | -6.06945 | 106.73923 | 3239 ft | 257 kts | 108° |
| 2026-04-20 03:19 | -6.07763 | 106.75536 | 4021 ft | 262 kts | 118° |
| 2026-04-20 03:19 | -6.08629 | 106.77148 | 4858 ft | 264 kts | 116° |
| 2026-04-20 03:19 | -6.09299 | 106.78876 | 5649 ft | 268 kts | 107° |
| 2026-04-20 03:20 | -6.09883 | 106.80663 | 6467 ft | 270 kts | 108° |
| 2026-04-20 03:20 | -6.10485 | 106.82465 | 7252 ft | 274 kts | 108° |
| 2026-04-20 03:20 | -6.11104 | 106.84288 | 8007 ft | 278 kts | 108° |
| 2026-04-20 03:20 | -6.11739 | 106.86139 | 8728 ft | 282 kts | 108° |
| 2026-04-20 03:21 | -6.12383 | 106.88013 | 9449 ft | 285 kts | 108° |
| 2026-04-20 03:21 | -6.13036 | 106.89910 | 10148 ft | 289 kts | 108° |
| 2026-04-20 03:21 | -6.13697 | 106.91831 | 10709 ft | 298 kts | 108° |
| 2026-04-20 03:21 | -6.14398 | 106.93876 | 10863 ft | 321 kts | 109° |
| 2026-04-20 03:22 | -6.15149 | 106.96070 | 11014 ft | 342 kts | 109° |
| 2026-04-20 03:22 | -6.15936 | 106.98364 | 11466 ft | 351 kts | 109° |
| 2026-04-20 03:22 | -6.16740 | 107.00701 | 12057 ft | 355 kts | 109° |
| 2026-04-20 03:22 | -6.17552 | 107.03058 | 12657 ft | 358 kts | 109° |
| 2026-04-20 03:23 | -6.18370 | 107.05436 | 13241 ft | 362 kts | 109° |
| 2026-04-20 03:23 | -6.19198 | 107.07844 | 13795 ft | 366 kts | 109° |
| 2026-04-20 03:23 | -6.20030 | 107.10273 | 14333 ft | 370 kts | 109° |
| 2026-04-20 03:23 | -6.20875 | 107.12734 | 14853 ft | 374 kts | 109° |
| 2026-04-20 03:24 | -6.21728 | 107.15219 | 15379 ft | 378 kts | 109° |
| 2026-04-20 03:24 | -6.22589 | 107.17728 | 15880 ft | 382 kts | 108° |
| 2026-04-20 03:24 | -6.23460 | 107.20262 | 16373 ft | 385 kts | 108° |
| 2026-04-20 03:24 | -6.24341 | 107.22818 | 16849 ft | 389 kts | 109° |
| 2026-04-20 03:25 | -6.25214 | 107.25362 | 17303 ft | 392 kts | 108° |
| 2026-04-20 03:25 | -6.26104 | 107.27966 | 17753 ft | 396 kts | 108° |
| 2026-04-20 03:25 | -6.27000 | 107.30590 | 18196 ft | 399 kts | 108° |
| 2026-04-20 03:25 | -6.27916 | 107.33269 | 18617 ft | 402 kts | 108° |
| 2026-04-20 03:26 | -6.28827 | 107.35938 | 19038 ft | 405 kts | 108° |
| 2026-04-20 03:26 | -6.29736 | 107.38592 | 19446 ft | 408 kts | 108° |
| 2026-04-20 03:26 | -6.30664 | 107.41293 | 19845 ft | 411 kts | 108° |
| 2026-04-20 03:26 | -6.31601 | 107.44019 | 20248 ft | 414 kts | 108° |
| 2026-04-20 03:27 | -6.32543 | 107.46761 | 20636 ft | 416 kts | 108° |
| 2026-04-20 03:27 | -6.33490 | 107.49522 | 21016 ft | 419 kts | 108° |
| 2026-04-20 03:27 | -6.34442 | 107.52299 | 21380 ft | 422 kts | 108° |
| 2026-04-20 03:27 | -6.35396 | 107.55095 | 21733 ft | 424 kts | 108° |
| 2026-04-20 03:28 | -6.36354 | 107.57910 | 22083 ft | 427 kts | 108° |
| 2026-04-20 03:28 | -6.37321 | 107.60740 | 22426 ft | 429 kts | 108° |
| 2026-04-20 03:28 | -6.39281 | 107.66440 | 23091 ft | 434 kts | 108° |
| 2026-04-20 03:29 | -6.40268 | 107.69314 | 23407 ft | 436 kts | 108° |
| 2026-04-20 03:29 | -6.41257 | 107.72205 | 23729 ft | 438 kts | 108° |
| 2026-04-20 03:29 | -6.42246 | 107.75113 | 24025 ft | 441 kts | 108° |
| 2026-04-20 03:29 | -6.43240 | 107.78035 | 24322 ft | 443 kts | 108° |
| 2026-04-20 03:30 | -6.44242 | 107.80970 | 24620 ft | 445 kts | 108° |
| 2026-04-20 03:30 | -6.45249 | 107.83918 | 24917 ft | 447 kts | 108° |
| 2026-04-20 03:30 | -6.46261 | 107.86876 | 25204 ft | 448 kts | 108° |
| 2026-04-20 03:30 | -6.47280 | 107.89847 | 25485 ft | 450 kts | 108° |
| 2026-04-20 03:31 | -6.48299 | 107.92829 | 25753 ft | 452 kts | 108° |
| 2026-04-20 03:31 | -6.49321 | 107.95825 | 26017 ft | 454 kts | 108° |
| 2026-04-20 03:31 | -6.50346 | 107.98833 | 26281 ft | 456 kts | 108° |
| 2026-04-20 03:31 | -6.51375 | 108.01851 | 26539 ft | 457 kts | 108° |
| 2026-04-20 03:32 | -6.52411 | 108.04881 | 26783 ft | 459 kts | 108° |
| 2026-04-20 03:32 | -6.53450 | 108.07924 | 27031 ft | 461 kts | 108° |
| 2026-04-20 03:32 | -6.54491 | 108.10979 | 27280 ft | 463 kts | 108° |
| 2026-04-20 03:32 | -6.55535 | 108.14046 | 27526 ft | 464 kts | 108° |
| 2026-04-20 03:33 | -6.56583 | 108.17123 | 27768 ft | 466 kts | 108° |
| 2026-04-20 03:33 | -6.57634 | 108.20212 | 28004 ft | 467 kts | 108° |
| 2026-04-20 03:33 | -6.58689 | 108.23310 | 28231 ft | 469 kts | 108° |
| 2026-04-20 03:33 | -6.59748 | 108.26417 | 28450 ft | 470 kts | 108° |
| 2026-04-20 03:34 | -6.60809 | 108.29535 | 28662 ft | 472 kts | 108° |
| 2026-04-20 03:34 | -6.61873 | 108.32664 | 28859 ft | 473 kts | 108° |
| 2026-04-20 03:34 | -6.62940 | 108.35803 | 29049 ft | 475 kts | 108° |
| 2026-04-20 03:34 | -6.63996 | 108.38909 | 29267 ft | 476 kts | 108° |
| 2026-04-20 03:35 | -6.65071 | 108.42064 | 29469 ft | 478 kts | 108° |
| 2026-04-20 03:35 | -6.66151 | 108.45229 | 29674 ft | 479 kts | 108° |
| 2026-04-20 03:35 | -6.67231 | 108.48404 | 29871 ft | 480 kts | 108° |
| 2026-04-20 03:35 | -6.68307 | 108.51583 | 30134 ft | 480 kts | 107° |
| 2026-04-20 03:36 | -6.69092 | 108.54834 | 30416 ft | 478 kts | 98° |
| 2026-04-20 03:36 | -6.69353 | 108.58156 | 30691 ft | 476 kts | 88° |
| 2026-04-20 03:36 | -6.69095 | 108.61465 | 30963 ft | 474 kts | 81° |
| 2026-04-20 03:36 | -6.68649 | 108.64750 | 31235 ft | 474 kts | 81° |
| 2026-04-20 03:37 | -6.68209 | 108.68030 | 31509 ft | 473 kts | 82° |
| 2026-04-20 03:37 | -6.67775 | 108.71306 | 31789 ft | 472 kts | 82° |
| 2026-04-20 03:37 | -6.67349 | 108.74576 | 32059 ft | 471 kts | 82° |
| 2026-04-20 03:37 | -6.66928 | 108.77843 | 32328 ft | 471 kts | 82° |
| 2026-04-20 03:38 | -6.66506 | 108.81105 | 32596 ft | 470 kts | 82° |
| 2026-04-20 03:38 | -6.66080 | 108.84364 | 32868 ft | 469 kts | 82° |
| 2026-04-20 03:38 | -6.65655 | 108.87616 | 33137 ft | 469 kts | 82° |
| 2026-04-20 03:38 | -6.65229 | 108.90863 | 33398 ft | 468 kts | 82° |
| 2026-04-20 03:39 | -6.64802 | 108.94106 | 33673 ft | 467 kts | 82° |
| 2026-04-20 03:39 | -6.64375 | 108.97344 | 33950 ft | 467 kts | 82° |
| 2026-04-20 03:39 | -6.63948 | 109.00579 | 34221 ft | 466 kts | 82° |
| 2026-04-20 03:39 | -6.63522 | 109.03807 | 34474 ft | 465 kts | 82° |
| 2026-04-20 03:40 | -6.63096 | 109.07030 | 34734 ft | 465 kts | 82° |
| 2026-04-20 03:40 | -6.62671 | 109.10246 | 34971 ft | 464 kts | 82° |
| 2026-04-20 03:40 | -6.62245 | 109.13457 | 35208 ft | 463 kts | 82° |
| 2026-04-20 03:40 | -6.61819 | 109.16663 | 35439 ft | 462 kts | 82° |
| 2026-04-20 03:41 | -6.61397 | 109.19864 | 35664 ft | 461 kts | 82° |
| 2026-04-20 03:41 | -6.60978 | 109.23060 | 35875 ft | 461 kts | 82° |
| 2026-04-20 03:41 | -6.60560 | 109.26251 | 36088 ft | 460 kts | 82° |
| 2026-04-20 03:41 | -6.60143 | 109.29438 | 36289 ft | 459 kts | 82° |
| 2026-04-20 03:42 | -6.59723 | 109.32625 | 36472 ft | 459 kts | 82° |
| 2026-04-20 03:42 | -6.59301 | 109.35806 | 36648 ft | 459 kts | 82° |
| 2026-04-20 03:42 | -6.58879 | 109.38983 | 36837 ft | 458 kts | 82° |
| 2026-04-20 03:42 | -6.58454 | 109.42158 | 36913 ft | 458 kts | 82° |
| 2026-04-20 03:43 | -6.57611 | 109.48459 | 36929 ft | 457 kts | 82° |
| 2026-04-20 03:43 | -6.56776 | 109.54781 | 36928 ft | 455 kts | 82° |
| 2026-04-20 03:44 | -6.55936 | 109.61124 | 36927 ft | 454 kts | 81° |
| 2026-04-20 03:44 | -6.55098 | 109.67361 | 36894 ft | 452 kts | 81° |
| 2026-04-20 03:45 | -6.54266 | 109.73625 | 36909 ft | 452 kts | 81° |
| 2026-04-20 03:45 | -6.53433 | 109.79881 | 36904 ft | 451 kts | 81° |
| 2026-04-20 03:46 | -6.52595 | 109.86131 | 36904 ft | 451 kts | 81° |
| 2026-04-20 03:46 | -6.51762 | 109.92379 | 36917 ft | 451 kts | 81° |
| 2026-04-20 03:47 | -6.50934 | 109.98622 | 36909 ft | 450 kts | 81° |
| 2026-04-20 03:47 | -6.50107 | 110.04861 | 36906 ft | 450 kts | 81° |
| 2026-04-20 03:48 | -6.49277 | 110.11094 | 36899 ft | 449 kts | 81° |
| 2026-04-20 03:48 | -6.48436 | 110.17329 | 36901 ft | 450 kts | 81° |
| 2026-04-20 03:49 | -6.47597 | 110.23553 | 36905 ft | 450 kts | 81° |
| 2026-04-20 03:49 | -6.46891 | 110.28781 | 36902 ft | 450 kts | 81° |
| 2026-04-20 03:50 | -6.46056 | 110.35017 | 36899 ft | 450 kts | 81° |
| 2026-04-20 03:50 | -6.45230 | 110.41206 | 36907 ft | 450 kts | 81° |
| 2026-04-20 03:51 | -6.44407 | 110.47437 | 36897 ft | 450 kts | 81° |
| 2026-04-20 03:51 | -6.43587 | 110.53674 | 36893 ft | 450 kts | 81° |
| 2026-04-20 03:52 | -6.42761 | 110.59905 | 36894 ft | 450 kts | 81° |
| 2026-04-20 03:52 | -6.41934 | 110.66137 | 36900 ft | 450 kts | 81° |
| 2026-04-20 03:53 | -6.41110 | 110.72369 | 36904 ft | 450 kts | 81° |
| 2026-04-20 03:53 | -6.40282 | 110.78596 | 36903 ft | 449 kts | 81° |
| 2026-04-20 03:54 | -6.39452 | 110.84824 | 36897 ft | 449 kts | 81° |
| 2026-04-20 03:54 | -6.38624 | 110.91049 | 36898 ft | 449 kts | 81° |
| 2026-04-20 03:55 | -6.37797 | 110.97274 | 36893 ft | 449 kts | 81° |
| 2026-04-20 03:55 | -6.36962 | 111.03495 | 36896 ft | 449 kts | 81° |
| 2026-04-20 03:56 | -6.36128 | 111.09716 | 36895 ft | 449 kts | 81° |
| 2026-04-20 03:56 | -6.35304 | 111.15938 | 36894 ft | 449 kts | 81° |
| 2026-04-20 03:57 | -6.34486 | 111.22160 | 36892 ft | 449 kts | 81° |
| 2026-04-20 03:57 | -6.33668 | 111.28383 | 36889 ft | 449 kts | 81° |
| 2026-04-20 03:58 | -6.32850 | 111.34606 | 36893 ft | 449 kts | 81° |
| 2026-04-20 03:58 | -6.32031 | 111.40788 | 36906 ft | 449 kts | 81° |
| 2026-04-20 03:59 | -6.31208 | 111.47005 | 36907 ft | 449 kts | 81° |
| 2026-04-20 03:59 | -6.30379 | 111.53220 | 36908 ft | 449 kts | 81° |
| 2026-04-20 04:00 | -6.29545 | 111.59434 | 36905 ft | 449 kts | 81° |
| 2026-04-20 04:00 | -6.28721 | 111.65646 | 36916 ft | 449 kts | 81° |
| 2026-04-20 04:01 | -6.27906 | 111.71864 | 36916 ft | 449 kts | 81° |
| 2026-04-20 04:01 | -6.27074 | 111.78079 | 36909 ft | 449 kts | 81° |
| 2026-04-20 04:02 | -6.26236 | 111.84293 | 36920 ft | 449 kts | 81° |
| 2026-04-20 04:02 | -6.25392 | 111.90508 | 36919 ft | 448 kts | 81° |
| 2026-04-20 04:03 | -6.24549 | 111.96713 | 36915 ft | 448 kts | 81° |
| 2026-04-20 04:03 | -6.23709 | 112.02922 | 36921 ft | 448 kts | 81° |
| 2026-04-20 04:04 | -6.22865 | 112.09132 | 36913 ft | 449 kts | 81° |
| 2026-04-20 04:04 | -6.22007 | 112.15341 | 36917 ft | 449 kts | 81° |
| 2026-04-20 04:05 | -6.21153 | 112.21551 | 36915 ft | 448 kts | 81° |
| 2026-04-20 04:05 | -6.20311 | 112.27757 | 36923 ft | 448 kts | 81° |
| 2026-04-20 04:06 | -6.19470 | 112.33963 | 36915 ft | 448 kts | 81° |
| 2026-04-20 04:06 | -6.18619 | 112.40168 | 36917 ft | 448 kts | 81° |
| 2026-04-20 04:07 | -6.17761 | 112.46374 | 36928 ft | 449 kts | 81° |
| 2026-04-20 04:07 | -6.16914 | 112.52543 | 36930 ft | 449 kts | 81° |
| 2026-04-20 04:08 | -6.16063 | 112.58756 | 36931 ft | 449 kts | 81° |
| 2026-04-20 04:08 | -6.15212 | 112.64972 | 36931 ft | 449 kts | 81° |
| 2026-04-20 04:09 | -6.14355 | 112.71187 | 36932 ft | 449 kts | 81° |
| 2026-04-20 04:09 | -6.13498 | 112.77400 | 36931 ft | 449 kts | 81° |
| 2026-04-20 04:10 | -6.12641 | 112.83606 | 36932 ft | 448 kts | 81° |
| 2026-04-20 04:10 | -6.11790 | 112.89809 | 36932 ft | 448 kts | 81° |
| 2026-04-20 04:11 | -6.10934 | 112.96009 | 36933 ft | 448 kts | 81° |
| 2026-04-20 04:11 | -6.10075 | 113.02210 | 36935 ft | 448 kts | 81° |
| 2026-04-20 04:12 | -6.09213 | 113.08404 | 36935 ft | 448 kts | 81° |
| 2026-04-20 04:12 | -6.08349 | 113.14596 | 36936 ft | 448 kts | 81° |
| 2026-04-20 04:13 | -6.07495 | 113.20791 | 36937 ft | 448 kts | 81° |
| 2026-04-20 04:13 | -6.06638 | 113.26990 | 36938 ft | 447 kts | 81° |
| 2026-04-20 04:14 | -6.05777 | 113.33179 | 36937 ft | 447 kts | 81° |
| 2026-04-20 04:14 | -6.04920 | 113.39370 | 36934 ft | 447 kts | 81° |
| 2026-04-20 04:15 | -6.04060 | 113.45561 | 36934 ft | 448 kts | 81° |
| 2026-04-20 04:15 | -6.03193 | 113.51751 | 36934 ft | 447 kts | 81° |
| 2026-04-20 04:16 | -6.02330 | 113.57937 | 36934 ft | 447 kts | 81° |
| 2026-04-20 04:16 | -6.01470 | 113.64111 | 36933 ft | 447 kts | 81° |
| 2026-04-20 04:17 | -6.00612 | 113.70287 | 36931 ft | 446 kts | 81° |
| 2026-04-20 04:17 | -5.99755 | 113.76455 | 36930 ft | 446 kts | 81° |
| 2026-04-20 04:18 | -5.98896 | 113.82622 | 36919 ft | 445 kts | 81° |
| 2026-04-20 04:18 | -5.98041 | 113.88734 | 36927 ft | 445 kts | 81° |
| 2026-04-20 04:19 | -5.97182 | 113.94890 | 36927 ft | 445 kts | 81° |
| 2026-04-20 04:19 | -5.96321 | 114.01046 | 36914 ft | 445 kts | 81° |
| 2026-04-20 04:20 | -5.95455 | 114.07200 | 36921 ft | 445 kts | 81° |
| 2026-04-20 04:20 | -5.94583 | 114.13354 | 36928 ft | 445 kts | 81° |
| 2026-04-20 04:21 | -5.93716 | 114.19511 | 36929 ft | 445 kts | 81° |
| 2026-04-20 04:21 | -5.92856 | 114.25672 | 36930 ft | 446 kts | 81° |
| 2026-04-20 04:22 | -5.91992 | 114.31836 | 36931 ft | 446 kts | 81° |
| 2026-04-20 04:22 | -5.91128 | 114.37998 | 36932 ft | 445 kts | 81° |
| 2026-04-20 04:23 | -5.90257 | 114.44154 | 36932 ft | 445 kts | 81° |
| 2026-04-20 04:23 | -5.89379 | 114.50306 | 36931 ft | 445 kts | 81° |
| 2026-04-20 04:24 | -5.88511 | 114.56454 | 36930 ft | 445 kts | 81° |
| 2026-04-20 04:24 | -5.87650 | 114.62603 | 36931 ft | 444 kts | 81° |
| 2026-04-20 04:25 | -5.86784 | 114.68747 | 36929 ft | 445 kts | 81° |
| 2026-04-20 04:25 | -5.85912 | 114.74891 | 36913 ft | 444 kts | 81° |
| 2026-04-20 04:26 | -5.85044 | 114.81032 | 36928 ft | 444 kts | 81° |
| 2026-04-20 04:26 | -5.84177 | 114.87164 | 36926 ft | 443 kts | 81° |
| 2026-04-20 04:27 | -5.83320 | 114.93241 | 36924 ft | 443 kts | 81° |
| 2026-04-20 04:27 | -5.82452 | 114.99362 | 36924 ft | 443 kts | 81° |
| 2026-04-20 04:28 | -5.81577 | 115.05482 | 36913 ft | 443 kts | 81° |
| 2026-04-20 04:28 | -5.80704 | 115.11604 | 36915 ft | 442 kts | 81° |
| 2026-04-20 04:29 | -5.79830 | 115.17712 | 36922 ft | 442 kts | 81° |
| 2026-04-20 04:29 | -5.78964 | 115.23817 | 36923 ft | 442 kts | 81° |
| 2026-04-20 04:30 | -5.78103 | 115.29921 | 36921 ft | 441 kts | 81° |
| 2026-04-20 04:30 | -5.77230 | 115.36021 | 36921 ft | 441 kts | 81° |
| 2026-04-20 04:31 | -5.76352 | 115.42119 | 36910 ft | 441 kts | 81° |
| 2026-04-20 04:31 | -5.75487 | 115.48215 | 36914 ft | 441 kts | 81° |
| 2026-04-20 04:32 | -5.74620 | 115.54312 | 36923 ft | 441 kts | 81° |
| 2026-04-20 04:32 | -5.73745 | 115.60405 | 36917 ft | 441 kts | 81° |
| 2026-04-20 04:33 | -5.72873 | 115.66494 | 36928 ft | 441 kts | 81° |
| 2026-04-20 04:33 | -5.72004 | 115.72589 | 36928 ft | 440 kts | 81° |
| 2026-04-20 04:34 | -5.71130 | 115.78673 | 36912 ft | 440 kts | 81° |
| 2026-04-20 04:34 | -5.70252 | 115.84754 | 36923 ft | 440 kts | 81° |
| 2026-04-20 04:35 | -5.69383 | 115.90790 | 36914 ft | 440 kts | 81° |
| 2026-04-20 04:35 | -5.68513 | 115.96869 | 36920 ft | 440 kts | 81° |
| 2026-04-20 04:36 | -5.67203 | 116.05983 | 36920 ft | 440 kts | 81° |
| 2026-04-20 04:37 | -5.66326 | 116.12056 | 36925 ft | 439 kts | 81° |
| 2026-04-20 04:37 | -5.65452 | 116.18127 | 36913 ft | 439 kts | 81° |
| 2026-04-20 04:38 | -5.64579 | 116.24192 | 36921 ft | 439 kts | 81° |
| 2026-04-20 04:38 | -5.63852 | 116.29230 | 36912 ft | 439 kts | 81° |
| 2026-04-20 04:39 | -5.62981 | 116.35302 | 36918 ft | 439 kts | 81° |
| 2026-04-20 04:39 | -5.62101 | 116.41360 | 36915 ft | 439 kts | 81° |
| 2026-04-20 04:40 | -5.61226 | 116.47421 | 36909 ft | 439 kts | 81° |
| 2026-04-20 04:40 | -5.60353 | 116.53481 | 36910 ft | 439 kts | 81° |
| 2026-04-20 04:41 | -5.59474 | 116.59541 | 36909 ft | 439 kts | 82° |
| 2026-04-20 04:41 | -5.58591 | 116.65599 | 36909 ft | 439 kts | 82° |
| 2026-04-20 04:42 | -5.57708 | 116.71660 | 36898 ft | 438 kts | 82° |
| 2026-04-20 04:42 | -5.56832 | 116.77718 | 36903 ft | 439 kts | 82° |
| 2026-04-20 04:43 | -5.55970 | 116.83733 | 36905 ft | 439 kts | 82° |
| 2026-04-20 04:43 | -5.55088 | 116.89789 | 36902 ft | 438 kts | 82° |
| 2026-04-20 04:44 | -5.54197 | 116.95842 | 36909 ft | 438 kts | 82° |
| 2026-04-20 04:44 | -5.53317 | 117.01896 | 36902 ft | 438 kts | 82° |
| 2026-04-20 04:45 | -5.52439 | 117.07950 | 36898 ft | 438 kts | 82° |
| 2026-04-20 04:45 | -5.51656 | 117.14016 | 36902 ft | 438 kts | 83° |
| 2026-04-20 04:46 | -5.50930 | 117.20087 | 36901 ft | 438 kts | 83° |
| 2026-04-20 04:46 | -5.50191 | 117.26159 | 36897 ft | 438 kts | 83° |
| 2026-04-20 04:47 | -5.49436 | 117.32219 | 36893 ft | 438 kts | 83° |
| 2026-04-20 04:47 | -5.48669 | 117.38274 | 36899 ft | 437 kts | 83° |
| 2026-04-20 04:48 | -5.47909 | 117.44328 | 36897 ft | 437 kts | 83° |
| 2026-04-20 04:48 | -5.47154 | 117.50382 | 36889 ft | 437 kts | 83° |
| 2026-04-20 04:49 | -5.46392 | 117.56433 | 36893 ft | 437 kts | 83° |
| 2026-04-20 04:49 | -5.45631 | 117.62479 | 36898 ft | 437 kts | 83° |
| 2026-04-20 04:50 | -5.44874 | 117.68525 | 36894 ft | 437 kts | 83° |
| 2026-04-20 04:50 | -5.44109 | 117.74528 | 36898 ft | 437 kts | 83° |
| 2026-04-20 04:51 | -5.43360 | 117.80457 | 36276 ft | 434 kts | 83° |
| 2026-04-20 04:51 | -5.42980 | 117.83488 | 34700 ft | 443 kts | 83° |
| 2026-04-20 04:51 | -5.42593 | 117.86589 | 33139 ft | 450 kts | 83° |
| 2026-04-20 04:51 | -5.42201 | 117.89724 | 31566 ft | 455 kts | 83° |
| 2026-04-20 04:52 | -5.41803 | 117.92885 | 30124 ft | 456 kts | 83° |
| 2026-04-20 04:52 | -5.41406 | 117.96034 | 28762 ft | 453 kts | 82° |
| 2026-04-20 04:52 | -5.41009 | 117.99175 | 27692 ft | 455 kts | 83° |
| 2026-04-20 04:52 | -5.40605 | 118.02302 | 27189 ft | 446 kts | 82° |
| 2026-04-20 04:53 | -5.40030 | 118.05306 | 26904 ft | 433 kts | 76° |
| 2026-04-20 04:53 | -5.39287 | 118.08212 | 26378 ft | 427 kts | 76° |
| 2026-04-20 04:53 | -5.38544 | 118.11088 | 25775 ft | 424 kts | 76° |
| 2026-04-20 04:53 | -5.37800 | 118.13944 | 25139 ft | 422 kts | 76° |
| 2026-04-20 04:54 | -5.37060 | 118.16786 | 24501 ft | 420 kts | 76° |
| 2026-04-20 04:54 | -5.36324 | 118.19612 | 24045 ft | 418 kts | 76° |
| 2026-04-20 04:54 | -5.35588 | 118.22445 | 23793 ft | 421 kts | 76° |
| 2026-04-20 04:54 | -5.34846 | 118.25302 | 23545 ft | 425 kts | 76° |
| 2026-04-20 04:55 | -5.34098 | 118.28176 | 23295 ft | 425 kts | 76° |
| 2026-04-20 04:55 | -5.33352 | 118.31041 | 23044 ft | 424 kts | 76° |
| 2026-04-20 04:55 | -5.32607 | 118.33893 | 22791 ft | 422 kts | 76° |
| 2026-04-20 04:55 | -5.31864 | 118.36732 | 22535 ft | 420 kts | 76° |
| 2026-04-20 04:56 | -5.31126 | 118.39557 | 22293 ft | 418 kts | 76° |
| 2026-04-20 04:56 | -5.30333 | 118.42350 | 22040 ft | 416 kts | 69° |
| 2026-04-20 04:56 | -5.28956 | 118.44889 | 21789 ft | 414 kts | 53° |
| 2026-04-20 04:56 | -5.27158 | 118.47132 | 21540 ft | 413 kts | 51° |
| 2026-04-20 04:57 | -5.25340 | 118.49354 | 21290 ft | 411 kts | 51° |
| 2026-04-20 04:57 | -5.23524 | 118.51561 | 21038 ft | 409 kts | 51° |
| 2026-04-20 04:57 | -5.21717 | 118.53757 | 20786 ft | 407 kts | 51° |
| 2026-04-20 04:57 | -5.19936 | 118.55924 | 20542 ft | 405 kts | 51° |
| 2026-04-20 04:58 | -5.18141 | 118.58110 | 20287 ft | 404 kts | 51° |
| 2026-04-20 04:58 | -5.16362 | 118.60281 | 20050 ft | 402 kts | 51° |
| 2026-04-20 04:58 | -5.14588 | 118.62446 | 19804 ft | 400 kts | 51° |
| 2026-04-20 04:58 | -5.12833 | 118.64604 | 19558 ft | 398 kts | 52° |
| 2026-04-20 04:59 | -5.11752 | 118.65958 | 19397 ft | 397 kts | 52° |
| 2026-04-20 04:59 | -5.10046 | 118.68128 | 19147 ft | 395 kts | 53° |
| 2026-04-20 04:59 | -5.08354 | 118.70294 | 18896 ft | 393 kts | 53° |
| 2026-04-20 04:59 | -5.07293 | 118.71650 | 18739 ft | 392 kts | 53° |
| 2026-04-20 05:00 | -5.05615 | 118.73793 | 18492 ft | 390 kts | 53° |
| 2026-04-20 05:00 | -5.03939 | 118.75930 | 18240 ft | 389 kts | 53° |
| 2026-04-20 05:00 | -5.02291 | 118.78031 | 17985 ft | 387 kts | 53° |
| 2026-04-20 05:00 | -5.00627 | 118.80146 | 17741 ft | 386 kts | 53° |
| 2026-04-20 05:01 | -4.98966 | 118.82251 | 17490 ft | 384 kts | 52° |
| 2026-04-20 05:01 | -4.97310 | 118.84347 | 17234 ft | 383 kts | 52° |
| 2026-04-20 05:01 | -4.95664 | 118.86432 | 16991 ft | 381 kts | 52° |
| 2026-04-20 05:01 | -4.94016 | 118.88517 | 16740 ft | 380 kts | 52° |
| 2026-04-20 05:02 | -4.92382 | 118.90587 | 16489 ft | 379 kts | 52° |
| 2026-04-20 05:02 | -4.90746 | 118.92658 | 16237 ft | 378 kts | 52° |
| 2026-04-20 05:02 | -4.89119 | 118.94720 | 15989 ft | 376 kts | 52° |
| 2026-04-20 05:02 | -4.87501 | 118.96771 | 15738 ft | 375 kts | 52° |
| 2026-04-20 05:03 | -4.85885 | 118.98818 | 15488 ft | 373 kts | 52° |
| 2026-04-20 05:03 | -4.84275 | 119.00857 | 15250 ft | 372 kts | 52° |
| 2026-04-20 05:03 | -4.82671 | 119.02890 | 15002 ft | 371 kts | 52° |
| 2026-04-20 05:03 | -4.81072 | 119.04917 | 14747 ft | 370 kts | 52° |
| 2026-04-20 05:04 | -4.79479 | 119.06936 | 14494 ft | 369 kts | 52° |
| 2026-04-20 05:04 | -4.77890 | 119.08947 | 14251 ft | 367 kts | 52° |
| 2026-04-20 05:04 | -4.76306 | 119.10950 | 14005 ft | 366 kts | 52° |
| 2026-04-20 05:04 | -4.74735 | 119.12938 | 13750 ft | 364 kts | 52° |
| 2026-04-20 05:05 | -4.73165 | 119.14926 | 13501 ft | 363 kts | 52° |
| 2026-04-20 05:05 | -4.71610 | 119.16893 | 13129 ft | 358 kts | 52° |
| 2026-04-20 05:05 | -4.70811 | 119.17901 | 12881 ft | 357 kts | 52° |
| 2026-04-20 05:05 | -4.69317 | 119.19878 | 12461 ft | 352 kts | 58° |
| 2026-04-20 05:06 | -4.68226 | 119.22053 | 11975 ft | 349 kts | 71° |
| 2026-04-20 05:06 | -4.67627 | 119.24426 | 11159 ft | 356 kts | 83° |
| 2026-04-20 05:06 | -4.67483 | 119.26926 | 10355 ft | 360 kts | 88° |
| 2026-04-20 05:06 | -4.67386 | 119.29345 | 10139 ft | 334 kts | 88° |
| 2026-04-20 05:07 | -4.67287 | 119.31581 | 9964 ft | 310 kts | 88° |
| 2026-04-20 05:07 | -4.67190 | 119.33692 | 9739 ft | 298 kts | 87° |
| 2026-04-20 05:07 | -4.67095 | 119.35758 | 9610 ft | 296 kts | 87° |
| 2026-04-20 05:07 | -4.66998 | 119.37822 | 9491 ft | 296 kts | 87° |
| 2026-04-20 05:08 | -4.66899 | 119.39878 | 9362 ft | 294 kts | 87° |
| 2026-04-20 05:08 | -4.66800 | 119.41920 | 9245 ft | 293 kts | 87° |
| 2026-04-20 05:08 | -4.66691 | 119.44094 | 9101 ft | 292 kts | 87° |
| 2026-04-20 05:08 | -4.66606 | 119.45847 | 8977 ft | 291 kts | 87° |
| 2026-04-20 05:09 | -4.66510 | 119.47870 | 8736 ft | 290 kts | 87° |
| 2026-04-20 05:09 | -4.66417 | 119.49881 | 8451 ft | 288 kts | 87° |
| 2026-04-20 05:09 | -4.66324 | 119.51881 | 8168 ft | 287 kts | 87° |
| 2026-04-20 05:09 | -4.66351 | 119.53868 | 7878 ft | 284 kts | 98° |
| 2026-04-20 05:10 | -4.66885 | 119.55764 | 7597 ft | 283 kts | 114° |
| 2026-04-20 05:10 | -4.67905 | 119.57438 | 7312 ft | 282 kts | 128° |
| 2026-04-20 05:10 | -4.69126 | 119.58971 | 7040 ft | 281 kts | 128° |
| 2026-04-20 05:10 | -4.70341 | 119.60502 | 6760 ft | 280 kts | 128° |
| 2026-04-20 05:11 | -4.71645 | 119.61941 | 6466 ft | 279 kts | 140° |
| 2026-04-20 05:11 | -4.73283 | 119.62961 | 6139 ft | 279 kts | 155° |
| 2026-04-20 05:11 | -4.75180 | 119.63468 | 5619 ft | 283 kts | 172° |
| 2026-04-20 05:11 | -4.77109 | 119.63711 | 5164 ft | 277 kts | 172° |
| 2026-04-20 05:12 | -4.79012 | 119.63964 | 4510 ft | 274 kts | 171° |
| 2026-04-20 05:12 | -4.80834 | 119.64213 | 4258 ft | 254 kts | 171° |
| 2026-04-20 05:12 | -4.82514 | 119.64448 | 4153 ft | 234 kts | 171° |
| 2026-04-20 05:12 | -4.84069 | 119.64664 | 4067 ft | 219 kts | 171° |
| 2026-04-20 05:13 | -4.85550 | 119.64868 | 3972 ft | 210 kts | 171° |
| 2026-04-20 05:13 | -4.86946 | 119.65061 | 3896 ft | 196 kts | 171° |
| 2026-04-20 05:13 | -4.88256 | 119.65241 | 3785 ft | 184 kts | 171° |
| 2026-04-20 05:13 | -4.89494 | 119.65334 | 3692 ft | 175 kts | 183° |
| 2026-04-20 05:14 | -4.90665 | 119.65004 | 3612 ft | 187 kts | 203° |
| 2026-04-20 05:14 | -4.91860 | 119.64391 | 3392 ft | 195 kts | 207° |
| 2026-04-20 05:14 | -4.93026 | 119.63737 | 3141 ft | 192 kts | 208° |
| 2026-04-20 05:14 | -4.94171 | 119.63081 | 2889 ft | 182 kts | 208° |
| 2026-04-20 05:15 | -4.95233 | 119.62470 | 2653 ft | 170 kts | 208° |
| 2026-04-20 05:15 | -4.96233 | 119.61894 | 2426 ft | 161 kts | 208° |
| 2026-04-20 05:15 | -4.97176 | 119.61350 | 2218 ft | 156 kts | 208° |
| 2026-04-20 05:15 | -4.98110 | 119.60812 | 2015 ft | 153 kts | 208° |
| 2026-04-20 05:16 | -4.99034 | 119.60280 | 1815 ft | 154 kts | 208° |
| 2026-04-20 05:16 | -4.99960 | 119.59746 | 1620 ft | 152 kts | 210° |
| 2026-04-20 05:16 | -5.00865 | 119.59225 | 1414 ft | 149 kts | 210° |
| 2026-04-20 05:16 | -5.01755 | 119.58713 | 1214 ft | 146 kts | 212° |
| 2026-04-20 05:17 | -5.02632 | 119.58207 | 1020 ft | 145 kts | 212° |
| 2026-04-20 05:17 | -5.03510 | 119.57701 | 827 ft | 146 kts | 212° |
| 2026-04-20 05:17 | -5.04390 | 119.57194 | 636 ft | 146 kts | 212° |
| 2026-04-20 05:17 | -5.05270 | 119.56686 | 431 ft | 145 kts | 212° |
| 2026-04-20 05:18 | -5.06149 | 119.56179 | 244 ft | 146 kts | 210° |
| 2026-04-20 05:18 | -5.07025 | 119.55676 | 56 ft | 144 kts | 210° |
| 2026-04-20 05:18 | -5.07828 | 119.55208 | 42 ft | 115 kts | 210° |
| 2026-04-20 05:18 | -5.08370 | 119.54897 | 40 ft | 57 kts | 210° |
| 2026-04-20 05:19 | -5.08534 | 119.54763 | 40 ft | 20 kts | 246° |
| 2026-04-20 05:19 | -5.08587 | 119.54669 | 39 ft | 14 kts | 240° |
| 2026-04-20 05:19 | -5.08599 | 119.54589 | 41 ft | 11 kts | 313° |
| 2026-04-20 05:19 | -5.08541 | 119.54598 | 41 ft | 8 kts | 27° |
| 2026-04-20 05:20 | -5.08493 | 119.54625 | 41 ft | 9 kts | 30° |
| 2026-04-20 05:20 | -5.08427 | 119.54664 | 40 ft | 12 kts | 30° |
| 2026-04-20 05:20 | -5.08357 | 119.54704 | 40 ft | 11 kts | 30° |
| 2026-04-20 05:20 | -5.08296 | 119.54739 | 40 ft | 10 kts | 30° |
| 2026-04-20 05:21 | -5.08242 | 119.54770 | 40 ft | 9 kts | 30° |
| 2026-04-20 05:21 | -5.08193 | 119.54798 | 40 ft | 8 kts | 30° |
| 2026-04-20 05:21 | -5.08150 | 119.54823 | 38 ft | 7 kts | 30° |
| 2026-04-20 05:21 | -5.08088 | 119.54842 | 41 ft | 10 kts | 351° |
| 2026-04-20 05:22 | -5.08043 | 119.54804 | 41 ft | 8 kts | 299° |
| 2026-04-20 05:22 | -5.08017 | 119.54758 | 41 ft | 9 kts | 299° |
| 2026-04-20 05:22 | -5.07964 | 119.54731 | 38 ft | 9 kts | 23° |
| 2026-04-20 05:22 | -5.07903 | 119.54764 | 39 ft | 12 kts | 30° |
| 2026-04-20 05:23 | -5.07838 | 119.54803 | 41 ft | 10 kts | 30° |
| 2026-04-20 05:23 | -5.07779 | 119.54837 | 41 ft | 9 kts | 30° |
| 2026-04-20 05:23 | -5.07728 | 119.54866 | 40 ft | 8 kts | 30° |
| 2026-04-20 05:23 | -5.07681 | 119.54894 | 39 ft | 8 kts | 27° |
| 2026-04-20 05:24 | -5.07641 | 119.54880 | 41 ft | 6 kts | 299° |
| 2026-04-20 05:24 | -5.07624 | 119.54848 | 41 ft | 4 kts | 301° |
| 2026-04-20 05:24 | -5.07618 | 119.54838 | 40 ft | 3 kts | 300° |
| 2026-04-20 05:24 | -5.07612 | 119.54827 | 41 ft | 0 kts | 300° |
| 2026-04-20 05:25 | -5.07611 | 119.54825 | 41 ft | 0 kts | 300° |